createdAt,value
2019-01-06T00:01:19.358Z,59.06
2019-01-06T00:03:49.427Z,58.77
2019-01-06T00:06:19.413Z,58.60
2019-01-06T00:08:58.112Z,59.30
2019-01-06T00:11:40.100Z,58.94
2019-01-06T00:14:21.873Z,60.44
2019-01-06T00:16:54.272Z,59.55
2019-01-06T00:19:26.904Z,59.14
2019-01-06T00:22:02.828Z,59.12
2019-01-06T00:24:32.883Z,59.70
2019-01-06T00:27:17.784Z,59.79
2019-01-06T00:29:59.549Z,59.76
2019-01-06T00:32:45.401Z,61.18
2019-01-06T00:35:31.511Z,60.67
2019-01-06T00:38:16.278Z,59.74
2019-01-06T00:40:55.084Z,59.24
2019-01-06T00:43:27.593Z,59.51
2019-01-06T00:46:15.419Z,60.36
2019-01-06T00:48:53.921Z,59.28
2019-01-06T00:51:39.564Z,59.09
2019-01-06T00:54:27.508Z,59.57
2019-01-06T00:57:13.586Z,59.69
2019-01-06T00:59:43.514Z,59.30
2019-01-06T01:02:22.320Z,58.58
2019-01-06T01:05:03.895Z,58.86
2019-01-06T01:07:48.941Z,59.00
2019-01-06T01:10:34.026Z,59.22
2019-01-06T01:13:07.429Z,59.60
2019-01-06T01:15:43.074Z,60.08
2019-01-06T01:18:13.041Z,59.82
2019-01-06T01:21:00.708Z,60.13
2019-01-06T01:23:45.241Z,57.70
2019-01-06T01:26:17.999Z,59.90
2019-01-06T01:28:53.469Z,61.36
2019-01-06T01:31:29.101Z,61.63
2019-01-06T01:34:01.968Z,61.14
2019-01-06T01:36:31.880Z,61.09
2019-01-06T01:39:07.566Z,60.66
2019-01-06T01:41:40.357Z,60.57
2019-01-06T01:44:18.975Z,60.89
2019-01-06T01:46:48.893Z,60.80
2019-01-06T01:49:18.807Z,60.96
2019-01-06T01:51:51.747Z,60.18
2019-01-06T01:54:36.590Z,59.97
2019-01-06T01:57:15.404Z,60.11
2019-01-06T01:59:54.008Z,60.01
2019-01-06T02:02:23.967Z,60.53
2019-01-06T02:04:56.671Z,60.58
2019-01-06T02:07:29.323Z,62.68
2019-01-06T02:10:15.289Z,62.63
2019-01-06T02:12:47.691Z,61.89
2019-01-06T02:15:20.122Z,62.08
2019-01-06T02:17:55.818Z,63.87
2019-01-06T02:20:25.737Z,64.37
2019-01-06T02:23:11.861Z,62.50
2019-01-06T02:25:56.717Z,62.68
2019-01-06T02:28:29.433Z,61.76
2019-01-06T02:31:07.986Z,62.80
2019-01-06T02:33:47.113Z,61.85
2019-01-06T02:36:31.902Z,61.88
2019-01-06T02:39:17.648Z,61.49
2019-01-06T02:41:59.636Z,61.07
2019-01-06T02:44:29.595Z,60.81
2019-01-06T02:47:14.091Z,61.51
2019-01-06T02:50:00.329Z,61.82
2019-01-06T02:52:30.233Z,61.42
2019-01-06T02:55:02.895Z,61.34
2019-01-06T02:57:48.806Z,60.86
2019-01-06T03:00:34.584Z,61.19
2019-01-06T03:03:04.545Z,62.11
2019-01-06T03:05:50.572Z,61.27
2019-01-06T03:08:21.546Z,60.39
2019-01-06T03:11:09.842Z,61.76
2019-01-06T03:13:42.929Z,61.15
2019-01-06T03:16:30.898Z,61.61
2019-01-06T03:19:16.616Z,61.38
2019-01-06T03:22:01.163Z,59.94
2019-01-06T03:24:31.129Z,61.88
2019-01-06T03:27:01.068Z,61.31
2019-01-06T03:29:46.806Z,60.24
2019-01-06T03:32:16.799Z,60.55
2019-01-06T03:35:02.680Z,61.04
2019-01-06T03:37:41.526Z,60.34
2019-01-06T03:40:27.465Z,60.51
2019-01-06T03:42:57.380Z,60.25
2019-01-06T03:45:39.201Z,60.27
2019-01-06T03:48:26.762Z,60.55
2019-01-06T03:51:11.584Z,60.98
2019-01-06T03:53:41.493Z,60.77
2019-01-06T03:56:27.461Z,64.50
2019-01-06T03:59:00.310Z,63.14
2019-01-06T04:01:30.388Z,63.69
2019-01-06T04:04:00.360Z,64.22
2019-01-06T04:06:45.298Z,63.26
2019-01-06T04:09:31.118Z,63.87
2019-01-06T04:12:06.764Z,62.65
2019-01-06T04:14:51.567Z,62.48
2019-01-06T04:17:21.487Z,63.04
2019-01-06T04:20:09.707Z,63.92
2019-01-06T04:22:55.642Z,63.48
2019-01-06T04:25:41.896Z,63.77
2019-01-06T04:28:28.099Z,63.97
2019-01-06T04:31:04.139Z,63.30
2019-01-06T04:36:36.566Z,64.03
2019-01-06T04:39:11.121Z,62.64
2019-01-06T04:41:56.841Z,62.44
2019-01-06T04:44:38.397Z,63.05
2019-01-06T04:47:08.359Z,62.91
2019-01-06T04:49:56.289Z,64.27
2019-01-06T04:52:34.857Z,63.45
2019-01-06T04:55:10.263Z,66.20
2019-01-06T04:57:51.993Z,66.05
2019-01-06T05:00:37.907Z,65.45
2019-01-06T05:03:23.922Z,65.80
2019-01-06T05:05:53.861Z,64.73
2019-01-06T05:08:35.936Z,65.48
2019-01-06T05:11:22.459Z,64.87
2019-01-06T05:14:08.332Z,64.21
2019-01-06T05:16:41.160Z,64.00
2019-01-06T05:19:17.229Z,65.32
2019-01-06T05:22:03.137Z,66.07
2019-01-06T05:24:49.531Z,64.03
2019-01-06T05:27:35.600Z,65.62
2019-01-06T05:30:21.008Z,65.89
2019-01-06T05:33:02.785Z,64.52
2019-01-06T05:35:48.474Z,64.65
2019-01-06T05:38:34.121Z,66.18
2019-01-06T05:41:16.179Z,64.32
2019-01-06T05:43:49.147Z,64.40
2019-01-06T05:46:35.432Z,64.12
2019-01-06T05:49:05.354Z,64.00
2019-01-06T05:51:47.273Z,64.20
2019-01-06T05:54:33.250Z,63.66
2019-01-06T05:57:15.022Z,63.00
2019-01-06T06:00:00.596Z,63.10
2019-01-06T06:02:33.331Z,62.48
2019-01-06T06:05:03.327Z,64.44
2019-01-06T06:07:45.164Z,64.34
2019-01-06T06:10:30.969Z,63.69
2019-01-06T06:13:17.587Z,63.45
2019-01-06T06:16:03.501Z,63.44
2019-01-06T06:18:35.917Z,63.53
2019-01-06T06:21:11.492Z,62.90
2019-01-06T06:23:44.254Z,62.47
2019-01-06T06:26:14.169Z,63.66
2019-01-06T06:28:50.034Z,63.38
2019-01-06T06:31:22.625Z,65.22
2019-01-06T06:33:52.700Z,64.79
2019-01-06T06:36:22.911Z,63.00
2019-01-06T06:39:07.428Z,64.21
2019-01-06T06:41:43.133Z,64.50
2019-01-06T06:44:15.788Z,62.64
2019-01-06T06:46:45.853Z,64.20
2019-01-06T06:49:15.946Z,65.04
2019-01-06T06:52:00.967Z,65.45
2019-01-06T06:54:30.924Z,64.93
2019-01-06T06:57:49.273Z,65.58
2019-01-06T07:00:42.354Z,65.26
2019-01-06T07:03:24.164Z,63.74
2019-01-06T07:05:59.855Z,63.82
2019-01-06T07:08:32.630Z,65.19
2019-01-06T07:11:05.029Z,63.99
2019-01-06T07:13:47.073Z,63.96
2019-01-06T07:16:54.181Z,64.71
2019-01-06T07:19:26.790Z,65.22
2019-01-06T07:21:56.704Z,64.11
2019-01-06T07:24:29.341Z,64.22
2019-01-06T07:27:02.067Z,64.45
2019-01-06T07:29:37.802Z,63.16
2019-01-06T07:32:07.725Z,63.24
2019-01-06T07:34:37.648Z,62.08
2019-01-06T07:37:13.053Z,59.85
2019-01-06T07:40:00.999Z,60.21
2019-01-06T07:42:42.763Z,59.07
2019-01-06T07:45:31.247Z,58.76
2019-01-06T07:48:06.921Z,58.23
2019-01-06T07:50:36.835Z,59.60
2019-01-06T07:53:09.510Z,59.76
2019-01-06T07:55:42.085Z,60.99
2019-01-06T07:58:20.843Z,61.42
2019-01-06T08:00:59.837Z,60.77
2019-01-06T08:03:29.887Z,60.17
2019-01-06T08:06:02.739Z,59.96
2019-01-06T08:08:50.747Z,59.14
2019-01-06T08:11:36.617Z,57.96
2019-01-06T08:14:12.360Z,59.20
2019-01-06T08:16:57.177Z,58.41
2019-01-06T08:19:27.977Z,58.50
2019-01-06T08:22:13.781Z,58.86
2019-01-06T08:24:43.753Z,58.14
2019-01-06T08:27:16.598Z,58.28
2019-01-06T08:30:01.365Z,59.11
2019-01-06T08:32:31.275Z,59.17
2019-01-06T08:35:17.102Z,58.78
2019-01-06T08:37:55.696Z,59.14
2019-01-06T08:40:37.558Z,59.56
2019-01-06T08:43:13.058Z,59.03
2019-01-06T08:46:01.305Z,59.07
2019-01-06T08:48:31.369Z,57.36
2019-01-06T08:51:09.833Z,56.95
2019-01-06T08:53:45.535Z,56.13
2019-01-06T08:56:27.524Z,57.72
2019-01-06T08:59:13.475Z,58.02
2019-01-06T09:01:59.738Z,57.49
2019-01-06T09:04:47.705Z,56.73
2019-01-06T09:07:29.622Z,57.09
2019-01-06T09:09:59.686Z,56.28
2019-01-06T09:12:42.768Z,57.22
2019-01-06T09:15:23.644Z,58.23
2019-01-06T09:18:09.670Z,57.97
2019-01-06T09:20:56.777Z,57.89
2019-01-06T09:23:29.635Z,58.83
2019-01-06T09:26:02.478Z,59.57
2019-01-06T09:28:38.538Z,59.26
2019-01-06T09:31:11.320Z,58.77
2019-01-06T09:33:44.242Z,58.42
2019-01-06T09:36:17.023Z,58.31
2019-01-06T09:39:01.915Z,58.52
2019-01-06T09:41:34.830Z,59.01
2019-01-06T09:44:04.889Z,59.07
2019-01-06T09:46:43.870Z,58.70
2019-01-06T09:49:13.936Z,58.59
2019-01-06T09:51:49.783Z,58.92
2019-01-06T09:54:31.997Z,58.86
2019-01-06T09:57:04.846Z,58.15
2019-01-06T09:59:37.584Z,57.19
2019-01-06T10:02:25.363Z,58.63
2019-01-06T10:05:11.586Z,60.32
2019-01-06T10:07:41.680Z,59.93
2019-01-06T10:10:20.740Z,59.84
2019-01-06T10:12:53.597Z,58.52
2019-01-06T10:15:23.656Z,59.76
2019-01-06T10:18:05.590Z,59.45
2019-01-06T10:20:41.363Z,59.47
2019-01-06T10:23:18.221Z,59.30
2019-01-06T10:25:48.295Z,58.43
2019-01-06T10:28:27.365Z,58.23
2019-01-06T10:31:13.748Z,58.13
2019-01-06T10:33:46.839Z,58.30
2019-01-06T10:36:25.828Z,58.46
2019-01-06T10:39:11.669Z,57.26
2019-01-06T10:41:44.441Z,57.35
2019-01-06T10:44:14.496Z,57.51
2019-01-06T10:46:47.362Z,58.03
2019-01-06T10:49:33.385Z,58.52
2019-01-06T10:52:19.262Z,56.45
2019-01-06T10:55:01.387Z,56.87
2019-01-06T10:57:47.882Z,55.84
2019-01-06T11:00:17.938Z,55.80
2019-01-06T11:02:59.791Z,56.59
2019-01-06T11:05:47.754Z,56.44
2019-01-06T11:08:20.547Z,56.04
2019-01-06T11:10:56.630Z,57.07
2019-01-06T11:13:26.735Z,56.10
2019-01-06T11:16:02.628Z,55.77
2019-01-06T11:18:32.881Z,56.65
2019-01-06T11:21:18.885Z,57.01
2019-01-06T11:24:05.148Z,56.61
2019-01-06T11:26:51.116Z,56.39
2019-01-06T11:29:21.223Z,56.03
2019-01-06T11:32:09.197Z,56.20
2019-01-06T11:34:39.309Z,54.45
2019-01-06T11:37:24.127Z,54.25
2019-01-06T11:40:00.311Z,54.47
2019-01-06T11:42:46.620Z,54.50
2019-01-06T11:45:19.487Z,54.12
2019-01-06T11:47:49.552Z,54.50
2019-01-06T11:50:25.437Z,54.21
2019-01-06T11:52:58.222Z,53.52
2019-01-06T11:55:28.283Z,52.48
2019-01-06T11:58:14.425Z,51.54
2019-01-06T12:00:56.619Z,52.50
2019-01-06T12:03:29.482Z,52.87
2019-01-06T12:06:14.461Z,52.86
2019-01-06T12:08:44.567Z,53.50
2019-01-06T12:11:17.436Z,52.63
2019-01-06T12:13:56.450Z,52.80
2019-01-06T12:16:35.127Z,53.62
2019-01-06T12:19:21.417Z,53.25
2019-01-06T12:22:00.334Z,54.50
2019-01-06T12:24:33.283Z,53.78
2019-01-06T12:27:06.041Z,54.13
2019-01-06T12:29:52.299Z,54.25
2019-01-06T12:32:22.374Z,54.05
2019-01-06T12:35:08.670Z,53.70
2019-01-06T12:37:41.491Z,55.03
2019-01-06T12:40:17.593Z,53.71
2019-01-06T12:42:53.636Z,54.38
2019-01-06T12:45:23.745Z,54.66
2019-01-06T12:48:09.709Z,54.19
2019-01-06T12:50:51.690Z,54.37
2019-01-06T12:53:27.879Z,54.30
2019-01-06T12:56:14.199Z,53.44
2019-01-06T12:58:53.268Z,53.33
2019-01-06T13:01:26.360Z,53.51
2019-01-06T13:04:12.483Z,54.68
2019-01-06T13:06:57.710Z,53.56
2019-01-06T13:09:33.507Z,54.07
2019-01-06T13:12:19.912Z,52.42
2019-01-06T13:14:52.966Z,51.29
2019-01-06T13:17:39.073Z,53.02
2019-01-06T13:20:21.336Z,53.54
2019-01-06T13:23:00.483Z,52.90
2019-01-06T13:25:30.533Z,53.38
2019-01-06T13:28:16.550Z,51.88
2019-01-06T13:31:02.328Z,52.07
2019-01-06T13:33:32.432Z,53.23
2019-01-06T13:36:18.135Z,53.05
2019-01-06T13:39:04.167Z,52.58
2019-01-06T13:41:40.085Z,52.29
2019-01-06T13:44:25.091Z,52.49
2019-01-06T13:47:11.093Z,51.62
2019-01-06T13:49:41.183Z,51.66
2019-01-06T13:52:26.171Z,53.13
2019-01-06T13:55:04.999Z,52.76
2019-01-06T13:57:52.707Z,52.78
2019-01-06T14:00:37.685Z,53.44
2019-01-06T14:03:07.738Z,52.94
2019-01-06T14:05:43.791Z,53.29
2019-01-06T14:08:29.840Z,52.78
2019-01-06T14:11:18.018Z,52.99
2019-01-06T14:13:48.085Z,53.48
2019-01-06T14:16:34.174Z,53.12
2019-01-06T14:19:07.068Z,52.70
2019-01-06T14:21:52.015Z,53.12
2019-01-06T14:24:22.092Z,54.50
2019-01-06T14:26:52.148Z,53.97
2019-01-06T14:29:28.816Z,53.56
2019-01-06T14:31:58.865Z,53.43
2019-01-06T14:34:28.918Z,53.85
2019-01-06T14:37:02.013Z,53.61
2019-01-06T14:39:34.309Z,53.60
2019-01-06T14:42:20.381Z,53.56
2019-01-06T14:44:50.454Z,52.60
2019-01-06T14:47:23.229Z,52.86
2019-01-06T14:50:09.425Z,53.18
2019-01-06T14:52:42.602Z,54.41
2019-01-06T14:55:28.070Z,55.25
2019-01-06T14:58:03.891Z,54.94
2019-01-06T15:00:35.566Z,54.04
2019-01-06T15:03:21.906Z,53.67
2019-01-06T15:06:00.916Z,53.25
2019-01-06T15:08:47.190Z,54.13
2019-01-06T15:11:33.187Z,53.64
2019-01-06T15:14:09.042Z,53.47
2019-01-06T15:16:39.147Z,53.98
2019-01-06T15:19:27.140Z,53.68
2019-01-06T15:22:13.448Z,54.50
2019-01-06T15:24:46.257Z,54.57
2019-01-06T15:27:32.318Z,53.87
2019-01-06T15:30:05.076Z,53.74
2019-01-06T15:32:51.497Z,53.65
2019-01-06T15:35:21.559Z,53.87
2019-01-06T15:38:08.348Z,53.84
2019-01-06T15:40:47.315Z,53.83
2019-01-06T15:43:29.557Z,54.47
2019-01-06T15:46:15.544Z,53.79
2019-01-06T15:48:48.382Z,53.62
2019-01-06T15:51:18.436Z,53.45
2019-01-06T15:53:51.258Z,53.95
2019-01-06T15:56:36.489Z,53.58
2019-01-06T15:59:22.279Z,55.08
2019-01-06T16:02:08.354Z,53.69
2019-01-06T16:04:54.337Z,55.76
2019-01-06T16:07:24.467Z,52.82
2019-01-06T16:09:57.288Z,51.97
2019-01-06T16:12:33.338Z,51.57
2019-01-06T16:15:15.547Z,51.98
2019-01-06T16:17:54.465Z,53.78
2019-01-06T16:20:42.512Z,55.40
2019-01-06T16:23:30.657Z,54.84
2019-01-06T16:26:16.516Z,53.25
2019-01-06T16:28:49.302Z,54.04
2019-01-06T16:31:25.215Z,53.20
2019-01-06T16:34:02.000Z,54.82
2019-01-06T16:36:43.905Z,55.09
2019-01-06T16:39:28.716Z,53.88
2019-01-06T16:42:17.529Z,55.43
2019-01-06T16:44:47.626Z,53.97
2019-01-06T16:47:17.694Z,54.16
2019-01-06T16:50:03.732Z,54.09
2019-01-06T16:52:36.249Z,54.84
2019-01-06T16:55:06.325Z,53.42
2019-01-06T16:57:38.901Z,54.82
2019-01-06T17:00:25.909Z,54.10
2019-01-06T17:03:01.833Z,53.73
2019-01-06T17:05:48.163Z,54.90
2019-01-06T17:08:18.277Z,56.98
2019-01-06T17:10:57.034Z,54.75
2019-01-06T17:13:36.077Z,55.19
2019-01-06T17:16:06.150Z,53.56
2019-01-06T17:18:48.315Z,55.41
2019-01-06T17:21:34.081Z,54.97
2019-01-06T17:24:22.136Z,54.30
2019-01-06T17:27:08.169Z,54.75
2019-01-06T17:29:44.370Z,55.28
2019-01-06T17:32:17.199Z,55.76
2019-01-06T17:35:03.025Z,55.44
2019-01-06T17:37:48.777Z,56.43
2019-01-06T17:40:18.885Z,55.27
2019-01-06T17:42:57.897Z,56.04
2019-01-06T17:45:33.772Z,55.22
2019-01-06T17:48:20.024Z,55.39
2019-01-06T17:50:50.128Z,57.20
2019-01-06T17:53:26.539Z,57.48
2019-01-06T17:56:12.618Z,55.91
2019-01-06T17:58:42.677Z,56.60
2019-01-06T18:01:18.827Z,57.85
2019-01-06T18:03:51.777Z,56.12
2019-01-06T18:06:38.875Z,56.77
2019-01-06T18:09:09.123Z,57.30
2019-01-06T18:11:48.313Z,57.96
2019-01-06T18:14:24.359Z,58.48
2019-01-06T18:16:54.454Z,59.34
2019-01-06T18:19:30.331Z,58.57
2019-01-06T18:22:16.735Z,57.79
2019-01-06T18:25:02.732Z,57.42
2019-01-06T18:27:35.524Z,58.68
2019-01-06T18:30:12.439Z,59.47
2019-01-06T18:32:51.738Z,59.05
2019-01-06T18:35:38.371Z,59.51
2019-01-06T18:38:08.475Z,58.61
2019-01-06T18:40:47.261Z,57.58
2019-01-06T18:43:33.564Z,57.58
2019-01-06T18:46:15.105Z,57.42
2019-01-06T18:48:45.212Z,56.30
2019-01-06T18:51:26.964Z,56.86
2019-01-06T18:54:14.959Z,57.14
2019-01-06T18:56:45.024Z,57.72
2019-01-06T18:59:20.875Z,57.69
2019-01-06T19:02:06.576Z,56.34
2019-01-06T19:04:48.566Z,56.56
2019-01-06T19:07:21.340Z,56.98
2019-01-06T19:10:00.538Z,56.78
2019-01-06T19:12:33.154Z,58.19
2019-01-06T19:15:06.263Z,58.34
2019-01-06T19:17:41.438Z,58.63
2019-01-06T19:20:11.135Z,58.10
2019-01-06T19:22:41.205Z,58.36
2019-01-06T19:25:27.282Z,57.40
2019-01-06T19:27:57.339Z,58.83
2019-01-06T19:30:30.149Z,60.28
2019-01-06T19:33:03.186Z,59.68
2019-01-06T19:35:36.199Z,58.68
2019-01-06T19:38:11.552Z,59.11
2019-01-06T19:40:57.534Z,58.81
2019-01-06T19:43:45.535Z,58.42
2019-01-06T19:46:31.822Z,59.48
2019-01-06T19:49:15.270Z,59.17
2019-01-06T19:52:01.454Z,57.92
2019-01-06T19:54:33.133Z,59.13
2019-01-06T19:57:03.204Z,58.04
2019-01-06T19:59:49.565Z,57.25
2019-01-06T20:02:22.423Z,58.16
2019-01-06T20:04:52.656Z,59.57
2019-01-06T20:07:22.710Z,59.12
2019-01-06T20:10:09.254Z,57.50
2019-01-06T20:12:47.981Z,58.08
2019-01-06T20:15:18.076Z,58.74
2019-01-06T20:18:03.342Z,58.52
2019-01-06T20:20:36.206Z,58.88
2019-01-06T20:23:09.197Z,58.92
2019-01-06T20:25:45.113Z,57.54
2019-01-06T20:28:18.138Z,59.37
2019-01-06T20:30:51.019Z,59.33
2019-01-06T20:33:33.101Z,58.58
2019-01-06T20:36:10.715Z,58.26
2019-01-06T20:38:44.650Z,57.60
2019-01-06T20:41:30.655Z,57.98
2019-01-06T20:44:12.738Z,58.17
2019-01-06T20:46:57.482Z,59.62
2019-01-06T20:49:43.539Z,58.94
2019-01-06T20:52:16.403Z,59.01
2019-01-06T20:55:02.351Z,58.12
2019-01-06T20:57:37.999Z,57.70
2019-01-06T21:00:15.550Z,57.40
2019-01-06T21:02:45.644Z,58.01
2019-01-06T21:05:24.951Z,57.65
2019-01-06T21:07:55.055Z,57.16
2019-01-06T21:10:27.824Z,57.60
2019-01-06T21:12:57.891Z,57.31
2019-01-06T21:15:44.303Z,56.78
2019-01-06T21:18:30.537Z,56.12
2019-01-06T21:21:16.883Z,56.99
2019-01-06T21:24:04.565Z,57.26
2019-01-06T21:26:46.573Z,56.08
2019-01-06T21:29:19.425Z,56.54
2019-01-06T21:32:05.777Z,57.11
2019-01-06T21:34:38.536Z,57.17
2019-01-06T21:37:23.825Z,56.65
2019-01-06T21:39:57.671Z,56.07
2019-01-06T21:42:27.774Z,56.84
2019-01-06T21:44:57.829Z,56.79
2019-01-06T21:47:44.284Z,56.93
2019-01-06T21:50:20.388Z,57.62
2019-01-06T21:53:06.700Z,58.41
2019-01-06T21:55:48.794Z,57.50
2019-01-06T21:58:27.998Z,58.07
2019-01-06T22:01:09.945Z,55.71
2019-01-06T22:03:40.041Z,56.66
2019-01-06T22:06:15.928Z,57.24
2019-01-06T22:09:01.997Z,57.98
2019-01-06T22:11:37.800Z,57.03
2019-01-06T22:14:10.645Z,56.87
2019-01-06T22:16:43.286Z,58.37
2019-01-06T22:19:13.345Z,58.11
2019-01-06T22:21:59.016Z,57.01
2019-01-06T22:24:37.769Z,57.24
2019-01-06T22:27:25.493Z,56.66
2019-01-06T22:29:58.446Z,55.60
2019-01-06T22:32:46.524Z,54.84
2019-01-06T22:35:32.348Z,56.43
2019-01-06T22:38:04.891Z,56.43
2019-01-06T22:40:41.479Z,56.78
2019-01-06T22:43:23.269Z,56.54
2019-01-06T22:45:58.898Z,57.77
2019-01-06T22:48:40.307Z,56.58
2019-01-06T22:51:28.525Z,56.74
2019-01-06T22:53:58.490Z,56.00
2019-01-06T22:56:28.402Z,56.39
2019-01-06T22:59:16.429Z,56.66
2019-01-06T23:02:02.461Z,57.48
2019-01-06T23:04:32.420Z,55.14
2019-01-06T23:07:23.678Z,55.19
2019-01-06T23:09:55.714Z,55.15
2019-01-06T23:12:25.637Z,56.73
2019-01-06T23:15:01.670Z,56.59
2019-01-06T23:17:34.444Z,57.19
2019-01-06T23:20:04.511Z,56.38
2019-01-06T23:22:52.058Z,56.83
2019-01-06T23:25:25.050Z,57.44
2019-01-06T23:27:54.965Z,57.80
2019-01-06T23:30:24.999Z,58.04
2019-01-06T23:33:12.925Z,57.64
2019-01-06T23:35:43.027Z,58.20
2019-01-06T23:38:29.197Z,58.37
2019-01-06T23:41:15.396Z,58.06
2019-01-06T23:43:46.175Z,58.09
2019-01-06T23:46:19.147Z,58.06
2019-01-06T23:48:52.445Z,57.77
2019-01-06T23:51:38.383Z,56.75
2019-01-06T23:54:17.296Z,56.86
2019-01-06T23:56:50.026Z,56.90
2019-01-06T23:59:35.980Z,57.33
